Holmdel Village, New Jersey
Current Conditions -  °F | °C
As of 9:35 AM on Friday 31 Oct 2014 (Local Time) from KBLM Reporting Station
Broken Clouds Broken Clouds  
Wind Chill: 41°   Ceiling: 3900
Heat Index: 45°   Visibility: 10mi
Dew Point: 36°   Wind: 6mph
Humidity: 71%   Direction: 360°N
Pressure: 30"   Gusts: NA
Location:  40.3764°N, 74.1727°W
Report Text: KBLM 311335Z AUTO 36005KT 10SM BKN039 BKN048 07/02 A3000 RMK AO1
Loading
Personal Weather Stations






























Interactive Weather Map
Tropical Storm Tracking
New forecast layout! Learn more

10-Day Weather Forecast

Advertisements
Track Severe Weather on mobile